Time;durP1;ratioP1;P1;durP2;ratioP2;P2;SDS_P1;SDS_P2;PMS_P1;PMS_P2;Temp;Humidity;BMP_temperature;BMP_pressure;BME280_temperature;BME280_humidity;BME280_pressure;Samples;Min_cycle;Max_cycle;Signal;HPM_P1;HPM_P2
2022/10/13 00:03:48;;;;;;;;;;;;;;;9.56;73.08;100846.06;10426022;28;20041;-79
2022/10/13 00:08:55;;;;;;;20.15;10.48;;;;;;;9.59;73.00;100851.22;10421225;28;20397;-79
2022/10/13 00:14:00;;;;;;;13.90;10.38;;;;;;;9.60;73.08;100847.53;10422377;28;20057;-79
2022/10/13 00:19:05;;;;;;;19.08;11.50;;;;;;;9.59;72.87;100853.88;10419328;28;20671;-78
2022/10/13 00:24:10;;;;;;;20.08;10.68;;;;;;;9.50;72.92;100844.66;10421432;28;20044;-78
2022/10/13 00:29:13;;;;;;;16.20;11.10;;;;;;;9.41;72.90;100842.63;10413602;28;20599;-78
2022/10/13 00:34:17;;;;;;;;;;;;;;;9.36;73.00;100842.09;10422381;28;20175;-79
2022/10/13 00:39:20;;;;;;;21.33;11.65;;;;;;;9.39;73.33;100840.03;10404693;28;19924;-78
2022/10/13 00:44:53;;;;;;;;;;;;;;;9.43;73.72;100844.22;10421368;28;20059;-79
2022/10/13 00:49:58;;;;;;;23.60;11.77;;;;;;;9.43;74.08;100844.22;10312278;28;20086;-79
2022/10/13 00:55:03;;;;;;;26.70;10.88;;;;;;;9.48;74.37;100846.59;10414425;28;20052;-77
2022/10/13 01:00:07;;;;;;;18.00;11.07;;;;;;;9.55;74.26;100844.34;10413708;28;20049;-79
2022/10/13 01:05:11;;;;;;;21.10;11.80;;;;;;;9.60;74.35;100835.03;10421543;28;20052;-80
2022/10/13 01:10:23;;;;;;;20.40;10.48;;;;;;;9.67;74.07;100822.03;10418792;28;20417;-80
2022/10/13 01:15:32;;;;;;;20.40;10.13;;;;;;;9.72;73.61;100815.38;10401807;28;20048;-79
2022/10/13 01:20:50;;;;;;;18.40;10.93;;;;;;;9.71;73.49;100816.34;10417219;28;20059;-78
2022/10/13 01:26:23;;;;;;;23.40;11.68;;;;;;;9.72;73.71;100814.50;10416466;28;20045;-80
2022/10/13 01:31:35;;;;;;;19.75;12.68;;;;;;;9.73;73.63;100805.50;10417728;28;20045;-80
2022/10/13 01:36:48;;;;;;;23.65;12.68;;;;;;;9.72;73.70;100806.47;10399669;28;20114;-78
2022/10/13 01:41:55;;;;;;;26.17;12.63;;;;;;;9.71;73.75;100799.41;10418669;28;20052;-80
2022/10/13 01:47:02;;;;;;;23.67;12.40;;;;;;;9.63;73.66;100794.56;10414991;28;20142;-77
2022/10/13 01:52:15;;;;;;;21.55;12.70;;;;;;;9.55;73.73;100782.66;10418714;28;20049;-78
2022/10/13 01:57:33;;;;;;;23.58;11.80;;;;;;;9.38;74.12;100789.19;10417486;28;20167;-79
2022/10/13 02:02:45;;;;;;;25.65;12.52;;;;;;;9.31;74.37;100779.88;10406738;28;20580;-79
2022/10/13 02:07:54;;;;;;;18.85;11.60;;;;;;;9.26;74.37;100770.31;10427624;28;20045;-77
2022/10/13 02:13:03;;;;;;;19.05;11.35;;;;;;;9.30;74.23;100765.63;10423383;28;20076;-78
2022/10/13 02:18:10;;;;;;;18.20;11.57;;;;;;;9.29;74.17;100754.00;10408689;28;20041;-80
2022/10/13 02:23:16;;;;;;;22.15;12.00;;;;;;;9.25;74.07;100762.41;10424808;28;20187;-77
2022/10/13 02:28:19;;;;;;;16.40;11.48;;;;;;;9.23;74.03;100761.63;10423713;28;20101;-80
2022/10/13 02:33:23;;;;;;;20.33;12.30;;;;;;;9.24;74.25;100752.63;10425935;28;20049;-79
2022/10/13 02:38:26;;;;;;;23.63;11.50;;;;;;;9.36;74.25;100748.25;10425015;28;20061;-80
2022/10/13 02:43:29;;;;;;;21.10;11.98;;;;;;;9.33;74.25;100753.81;10425718;28;20513;-78
2022/10/13 02:48:33;;;;;;;17.00;11.90;;;;;;;9.33;74.41;100752.00;10408289;28;20417;-78
2022/10/13 02:53:36;;;;;;;21.38;11.75;;;;;;;9.37;74.47;100758.00;10423255;28;20041;-80
2022/10/13 02:58:39;;;;;;;;;;;;;;;9.41;74.66;100746.94;10421584;28;20041;-79
2022/10/13 03:03:43;;;;;;;15.90;12.07;;;;;;;9.43;74.53;100749.50;10431734;28;19956;-78
2022/10/13 03:08:46;;;;;;;22.23;12.05;;;;;;;9.50;74.27;100746.28;10439560;28;20059;-77
2022/10/13 03:20:18;;;;;;;22.58;12.00;;;;;;;9.59;74.19;100744.78;10420953;28;19921;-77
2022/10/13 03:25:21;;;;;;;20.52;12.23;;;;;;;9.63;74.24;100742.75;10425320;28;20162;-79
2022/10/13 03:30:25;;;;;;;23.83;12.57;;;;;;;9.61;74.25;100745.53;10424734;28;20148;-80
2022/10/13 03:35:29;;;;;;;17.75;11.60;;;;;;;9.69;74.60;100750.34;10425290;28;20053;-79
2022/10/13 03:40:32;;;;;;;25.35;13.55;;;;;;;9.77;74.65;100753.34;10423715;28;20059;-79
2022/10/13 03:45:34;;;;;;;;;;;;;;;9.79;74.48;100754.09;10419080;28;20575;-77
2022/10/13 03:50:38;;;;;;;24.03;13.43;;;;;;;9.80;74.31;100750.44;10423274;28;19932;-78
2022/10/13 03:55:41;;;;;;;23.17;14.23;;;;;;;9.78;73.99;100754.19;10420454;28;20276;-79
2022/10/13 04:00:44;;;;;;;;;;;;;;;9.75;73.86;100744.53;10421041;28;20739;-78
2022/10/13 04:05:48;;;;;;;20.80;12.77;;;;;;;9.69;73.92;100743.16;10422809;28;20307;-80
2022/10/13 04:10:58;;;;;;;20.63;12.85;;;;;;;9.64;73.90;100737.25;10424057;28;20517;-77
2022/10/13 04:16:02;;;;;;;20.75;13.10;;;;;;;9.65;73.94;100735.44;10421262;28;20059;-79
2022/10/13 04:21:09;;;;;;;24.55;13.55;;;;;;;9.63;73.95;100732.88;10421743;28;20045;-79
2022/10/13 04:26:17;;;;;;;24.85;12.82;;;;;;;9.62;73.87;100725.78;10412514;28;20494;-78
2022/10/13 04:31:21;;;;;;;22.17;13.10;;;;;;;9.60;73.85;100714.31;10421444;28;20510;-80
2022/10/13 04:36:26;;;;;;;23.20;12.98;;;;;;;9.61;74.03;100716.03;10419601;28;20076;-80
2022/10/13 04:41:29;;;;;;;30.15;15.00;;;;;;;9.62;74.10;100707.00;10418965;28;20041;-79
2022/10/13 04:46:32;;;;;;;30.30;14.27;;;;;;;9.54;73.99;100714.72;10421183;28;20064;-80
2022/10/13 04:51:36;;;;;;;20.98;13.90;;;;;;;9.57;74.09;100710.97;10420277;28;20060;-78
2022/10/13 04:56:38;;;;;;;22.25;13.45;;;;;;;9.58;74.17;100702.00;10419429;28;20051;-79
2022/10/13 05:01:42;;;;;;;;;;;;;;;9.62;74.33;100708.81;10417421;28;20537;-78
2022/10/13 05:06:49;;;;;;;23.92;13.57;;;;;;;9.67;74.27;100699.47;10418725;28;19924;-79
2022/10/13 05:12:12;;;;;;;24.95;13.68;;;;;;;9.67;74.25;100695.94;10431180;28;20112;-78
2022/10/13 05:17:14;;;;;;;;;;;;;;;9.62;74.47;100696.28;10443831;28;20049;-78
2022/10/13 05:22:18;;;;;;;20.75;12.07;;;;;;;9.66;74.24;100684.38;10429678;28;19924;-80
2022/10/13 05:27:22;;;;;;;29.58;12.75;;;;;;;9.63;74.30;100679.22;10421915;28;20051;-80
2022/10/13 05:32:24;;;;;;;;;;;;;;;9.62;74.09;100679.31;10398548;28;20068;-80
2022/10/13 05:37:29;;;;;;;22.15;12.57;;;;;;;9.62;74.33;100674.81;10425746;28;20038;-79
2022/10/13 05:42:32;;;;;;;23.42;12.48;;;;;;;9.61;74.51;100673.09;10428494;28;20506;-78
2022/10/13 05:47:35;;;;;;;23.40;13.65;;;;;;;9.65;74.78;100671.94;10426292;28;20072;-80
2022/10/13 05:52:39;;;;;;;25.55;12.98;;;;;;;9.78;74.83;100668.34;10425622;28;20539;-78
2022/10/13 05:57:45;;;;;;;26.95;14.38;;;;;;;9.85;74.71;100669.63;10426738;28;20049;-80
2022/10/13 06:02:54;;;;;;;33.80;16.10;;;;;;;10.01;74.39;100664.88;10424734;28;20056;-78
2022/10/13 06:07:59;;;;;;;25.27;14.82;;;;;;;10.13;74.58;100669.31;10421501;28;20421;-80
2022/10/13 06:13:02;;;;;;;23.10;13.55;;;;;;;10.27;74.04;100664.72;10424283;28;20140;-78
2022/10/13 06:18:07;;;;;;;;;;;;;;;10.24;74.03;100663.13;10423147;28;20059;-80
2022/10/13 06:23:11;;;;;;;22.85;12.80;;;;;;;10.23;74.03;100666.81;10414558;28;20341;-78
2022/10/13 06:28:14;;;;;;;30.40;13.55;;;;;;;10.38;74.11;100665.63;10420914;28;21200;-81
2022/10/13 06:33:17;;;;;;;23.65;13.48;;;;;;;10.57;73.82;100672.28;10422505;28;20045;-79
2022/10/13 06:38:21;;;;;;;;;;;;;;;10.74;73.20;100669.16;10418656;28;20048;-79
2022/10/13 06:43:24;;;;;;;19.38;11.27;;;;;;;10.86;72.85;100659.31;10422713;28;19932;-79
2022/10/13 06:48:38;;;;;;;17.50;12.15;;;;;;;10.93;72.67;100656.97;10421869;28;20044;-79
2022/10/13 06:53:42;;;;;;;27.02;14.18;;;;;;;11.01;72.26;100657.22;10422927;28;20082;-79
2022/10/13 06:58:45;;;;;;;22.95;12.68;;;;;;;10.97;72.18;100658.44;10413709;28;20473;-79
2022/10/13 07:03:49;;;;;;;20.88;12.25;;;;;;;11.00;71.98;100660.91;10425356;28;20044;-79
2022/10/13 07:08:57;;;;;;;22.02;11.98;;;;;;;10.96;72.04;100649.53;10420814;28;20060;-80
2022/10/13 07:13:59;;;;;;;20.48;11.68;;;;;;;11.00;72.08;100642.09;10417041;28;20053;-80
2022/10/13 07:19:07;;;;;;;18.70;11.27;;;;;;;11.13;71.82;100645.53;10417421;28;20051;-81
2022/10/13 07:24:14;;;;;;;18.40;10.40;;;;;;;11.17;71.55;100649.69;10412651;28;20386;-79
2022/10/13 07:29:17;;;;;;;16.23;10.93;;;;;;;11.20;71.43;100652.16;10418299;28;20595;-80
2022/10/13 07:34:20;;;;;;;17.98;10.65;;;;;;;11.39;71.05;100651.53;10418957;28;20896;-81
2022/10/13 07:39:24;;;;;;;21.45;11.98;;;;;;;11.55;70.54;100640.41;10419446;28;20059;-79
2022/10/13 07:44:27;;;;;;;26.65;12.77;;;;;;;11.55;70.25;100650.31;10418897;28;20053;-80
2022/10/13 07:49:30;;;;;;;27.65;14.80;;;;;;;11.56;70.03;100647.47;10420374;28;20718;-79
2022/10/13 07:54:35;;;;;;;23.67;14.43;;;;;;;11.60;70.15;100654.34;10417380;28;20088;-79
2022/10/13 07:59:38;;;;;;;25.95;15.90;;;;;;;11.94;69.61;100651.56;10408414;28;20176;-80
2022/10/13 08:04:44;;;;;;;26.40;14.75;;;;;;;12.64;68.26;100642.09;10420764;28;21516;-80
2022/10/13 08:09:49;;;;;;;23.30;12.95;;;;;;;13.15;66.17;100643.97;10417251;28;20132;-79
2022/10/13 08:14:51;;;;;;;22.00;12.63;;;;;;;13.43;64.95;100658.59;10418065;28;21283;-79
2022/10/13 08:19:55;;;;;;;23.15;13.45;;;;;;;13.70;64.82;100640.91;10405060;28;20057;-81
2022/10/13 08:25:02;;;;;;;22.60;13.40;;;;;;;14.03;63.27;100642.38;10410101;28;20045;-79
2022/10/13 08:30:06;;;;;;;24.35;13.68;;;;;;;13.90;64.14;100639.97;10416205;28;20053;-79
2022/10/13 08:35:11;;;;;;;23.48;11.65;;;;;;;13.68;64.37;100635.66;10386344;28;20045;-80
2022/10/13 08:40:19;;;;;;;23.73;10.73;;;;;;;13.67;64.98;100639.34;10412289;28;20045;-79
2022/10/13 08:45:26;;;;;;;15.07;10.07;;;;;;;13.55;64.90;100645.88;10409141;28;20703;-80
2022/10/13 08:50:47;;;;;;;19.10;9.25;;;;;;;13.75;63.76;100645.91;10404285;28;20052;-79
2022/10/13 08:55:56;;;;;;;16.63;9.93;;;;;;;14.08;63.84;100644.69;10411265;28;20076;-80
2022/10/13 09:01:12;;;;;;;14.60;8.30;;;;;;;14.23;63.00;100643.25;10404187;28;20052;-80
2022/10/13 09:06:20;;;;;;;11.70;7.78;;;;;;;14.50;61.87;100641.72;10413742;28;20048;-82
2022/10/13 09:11:27;;;;;;;14.00;8.35;;;;;;;14.31;62.03;100640.69;10427255;28;20072;-81
2022/10/13 09:16:34;;;;;;;16.55;7.78;;;;;;;14.57;60.42;100637.44;10407478;28;20055;-81
2022/10/13 09:21:38;;;;;;;22.90;8.20;;;;;;;14.64;60.53;100641.25;10421926;28;20037;-79
2022/10/13 09:26:44;;;;;;;12.43;7.55;;;;;;;14.80;60.43;100629.84;10407868;28;20052;-78
2022/10/13 09:31:47;;;;;;;15.18;8.55;;;;;;;14.73;60.82;100629.59;10395768;28;20053;-80
2022/10/13 09:36:58;;;;;;;12.82;7.90;;;;;;;14.88;60.38;100634.53;10434438;28;20059;-78
2022/10/13 09:42:22;;;;;;;14.10;9.07;;;;;;;14.64;60.07;100632.31;10435738;28;20079;-79
2022/10/13 09:47:27;;;;;;;15.80;9.25;;;;;;;14.79;59.65;100615.50;10425406;28;20041;-81
2022/10/13 09:52:30;;;;;;;13.88;8.95;;;;;;;14.93;60.14;100605.22;10427978;28;20048;-79
2022/10/13 09:57:42;;;;;;;13.98;9.48;;;;;;;15.73;57.95;100605.56;10421691;28;20099;-80
2022/10/13 10:02:52;;;;;;;19.05;8.20;;;;;;;15.07;58.19;100606.59;10420294;28;20053;-80
2022/10/13 10:08:00;;;;;;;15.40;8.13;;;;;;;15.05;59.37;100612.13;10427275;28;20053;-80
2022/10/13 10:13:10;;;;;;;17.30;9.13;;;;;;;14.79;60.33;100606.53;10406725;28;20045;-79
2022/10/13 10:18:19;;;;;;;12.98;8.90;;;;;;;14.90;60.10;100602.81;10418615;28;20628;-81
2022/10/13 10:23:32;;;;;;;16.02;8.88;;;;;;;14.87;59.92;100595.84;10417287;28;20059;-80
2022/10/13 10:28:57;;;;;;;16.05;9.20;;;;;;;15.24;59.49;100584.13;10417639;28;20045;-81
2022/10/13 10:34:13;;;;;;;15.05;8.93;;;;;;;15.52;59.49;100582.31;10410332;28;20069;-79
2022/10/13 10:39:23;;;;;;;14.40;9.50;;;;;;;15.32;59.16;100584.25;10415141;28;20064;-79
2022/10/13 10:44:30;;;;;;;17.02;9.13;;;;;;;15.45;59.17;100581.22;10438569;28;20594;-79
2022/10/13 10:49:35;;;;;;;17.38;8.73;;;;;;;15.60;58.33;100582.38;10428388;28;20044;-80
2022/10/13 10:54:45;;;;;;;19.30;9.27;;;;;;;15.45;59.16;100563.13;10426029;28;20059;-81
2022/10/13 10:59:59;;;;;;;13.32;9.07;;;;;;;15.43;59.07;100561.56;10419252;28;20064;-80
2022/10/13 11:05:03;;;;;;;15.93;7.90;;;;;;;15.60;59.59;100568.84;10416621;28;20045;-81
2022/10/13 11:10:20;;;;;;;14.90;8.93;;;;;;;15.27;59.64;100565.75;10421164;28;21347;-81
2022/10/13 11:15:29;;;;;;;15.90;8.55;;;;;;;15.51;59.30;100550.81;10400403;28;20046;-80
2022/10/13 11:20:57;;;;;;;15.45;7.70;;;;;;;14.93;60.92;100534.88;10418904;28;20044;-80
2022/10/13 11:26:19;;;;;;;17.83;8.52;;;;;;;15.43;60.17;100538.06;10407426;28;20049;-79
2022/10/13 11:31:27;;;;;;;12.30;7.50;;;;;;;15.73;59.33;100525.16;10415621;28;20786;-80
2022/10/13 11:36:46;;;;;;;14.02;8.98;;;;;;;15.89;58.74;100519.06;10392501;28;20057;-80
2022/10/13 11:41:57;;;;;;;12.45;7.28;;;;;;;16.27;57.55;100507.03;10395274;28;20429;-78
2022/10/13 11:47:11;;;;;;;18.80;8.52;;;;;;;15.88;59.39;100512.78;10396965;28;20233;-79
2022/10/13 11:52:45;;;;;;;14.38;8.77;;;;;;;15.79;58.30;100505.56;10407777;28;20049;-79
2022/10/13 11:57:48;;;;;;;17.27;8.18;;;;;;;15.99;58.92;100497.28;10409721;28;20118;-79
2022/10/13 12:02:53;;;;;;;15.27;7.65;;;;;;;16.13;57.26;100494.88;10421208;28;20422;-79
2022/10/13 12:08:00;;;;;;;16.65;7.45;;;;;;;16.52;57.08;100489.06;10416067;28;20444;-78
2022/10/13 12:13:04;;;;;;;10.73;7.13;;;;;;;16.35;56.94;100485.41;10416216;28;20055;-79
2022/10/13 12:18:22;;;;;;;9.75;6.82;;;;;;;15.97;58.09;100492.03;10416351;28;20047;-79
2022/10/13 12:23:28;;;;;;;15.52;6.80;;;;;;;16.16;57.73;100488.28;10411276;28;20192;-79
2022/10/13 12:28:48;;;;;;;11.25;6.55;;;;;;;16.17;57.47;100487.25;10404646;28;20110;-78
2022/10/13 12:33:57;;;;;;;12.73;6.50;;;;;;;16.17;57.56;100484.56;10417509;28;20052;-79
2022/10/13 12:39:03;;;;;;;16.50;6.80;;;;;;;16.64;56.33;100475.22;10415796;28;20059;-78
2022/10/13 12:44:11;;;;;;;13.10;6.40;;;;;;;16.73;55.84;100477.81;10415826;28;20045;-79
2022/10/13 12:49:21;;;;;;;10.50;6.63;;;;;;;16.90;54.60;100467.88;10417484;28;20045;-78
2022/10/13 12:54:28;;;;;;;14.98;6.43;;;;;;;18.60;51.15;100459.16;10417706;28;20076;-79
2022/10/13 12:59:33;;;;;;;11.70;5.82;;;;;;;20.13;47.86;100445.81;10415791;28;20048;-81
2022/10/13 13:04:43;;;;;;;11.82;6.03;;;;;;;20.38;45.98;100443.72;10418423;28;20049;-80
2022/10/13 13:10:00;;;;;;;9.80;4.88;;;;;;;19.55;47.37;100450.84;10420324;28;20048;-81
2022/10/13 13:15:19;;;;;;;7.88;4.50;;;;;;;20.19;46.86;100450.50;10422980;28;20056;-80
2022/10/13 13:20:27;;;;;;;10.50;4.90;;;;;;;19.56;48.47;100449.88;10419889;28;20044;-80
2022/10/13 13:25:30;;;;;;;8.60;5.05;;;;;;;18.92;48.51;100457.34;10415297;28;20045;-81
2022/10/13 13:30:34;;;;;;;9.13;4.95;;;;;;;17.65;51.36;100442.63;10421156;28;20053;-81
2022/10/13 13:35:38;;;;;;;7.75;4.70;;;;;;;17.48;52.55;100437.19;10422529;28;20053;-80
2022/10/13 13:40:41;;;;;;;13.82;4.78;;;;;;;17.29;52.44;100436.66;10423790;28;20055;-79
2022/10/13 13:45:47;;;;;;;8.85;4.90;;;;;;;17.80;51.87;100430.06;10402434;28;20044;-78
2022/10/13 13:50:51;;;;;;;10.95;4.85;;;;;;;18.89;49.56;100425.06;10420763;28;20088;-79
2022/10/13 13:55:54;;;;;;;10.73;5.40;;;;;;;18.07;51.05;100430.72;10438119;28;20056;-79
2022/10/13 14:00:59;;;;;;;12.55;4.97;;;;;;;17.36;52.20;100415.94;10456525;23;20057;-79
2022/10/13 14:06:03;;;;;;;7.40;4.68;;;;;;;17.37;52.97;100413.06;10403853;28;20713;-80
2022/10/13 14:11:06;;;;;;;7.85;4.82;;;;;;;17.40;52.84;100410.00;10372797;28;20607;-80
2022/10/13 14:16:14;;;;;;;7.22;4.57;;;;;;;17.41;53.87;100414.41;10409697;28;20057;-80
2022/10/13 14:21:19;;;;;;;7.40;4.88;;;;;;;17.14;53.65;100407.44;10415555;28;20183;-82
2022/10/13 14:26:22;;;;;;;10.65;5.07;;;;;;;16.85;54.44;100412.41;10437604;28;20068;-79
2022/10/13 14:31:25;;;;;;;7.88;4.70;;;;;;;16.84;54.33;100411.56;10417098;28;20056;-81
2022/10/13 14:36:29;;;;;;;9.80;5.35;;;;;;;16.85;54.66;100413.25;10390168;28;20063;-81
2022/10/13 14:41:32;;;;;;;7.65;4.30;;;;;;;16.66;54.37;100402.69;10416787;28;20049;-81
2022/10/13 14:46:35;;;;;;;8.13;4.78;;;;;;;16.41;55.32;100407.16;10406396;28;20124;-81
2022/10/13 14:51:39;;;;;;;8.35;3.85;;;;;;;16.41;54.80;100404.44;10397333;28;20052;-80
2022/10/13 14:56:43;;;;;;;6.32;4.05;;;;;;;16.27;54.75;100412.16;10386604;28;20056;-80
2022/10/13 15:01:48;;;;;;;8.07;5.18;;;;;;;16.02;55.33;100407.59;10371136;28;20052;-80
2022/10/13 15:06:52;;;;;;;8.75;4.53;;;;;;;16.16;55.64;100398.84;10409079;28;20140;-81
2022/10/13 15:11:55;;;;;;;8.10;5.07;;;;;;;16.03;56.02;100403.84;10395760;28;20049;-81
2022/10/13 15:16:57;;;;;;;6.68;4.18;;;;;;;16.08;55.27;100404.22;10396336;28;20063;-79
2022/10/13 15:22:02;;;;;;;9.00;4.50;;;;;;;15.98;56.06;100406.19;10396802;28;20076;-80
2022/10/13 15:27:05;;;;;;;10.02;4.63;;;;;;;15.72;57.48;100408.88;10386136;28;20529;-79
2022/10/13 15:32:10;;;;;;;6.13;4.95;;;;;;;15.20;58.06;100404.16;10402626;28;20794;-79
2022/10/13 15:37:14;;;;;;;10.55;5.68;;;;;;;15.45;58.41;100411.53;10407982;28;20049;-80
2022/10/13 15:42:17;;;;;;;10.48;4.70;;;;;;;15.39;57.68;100405.91;10406404;28;20194;-80
2022/10/13 15:47:20;;;;;;;8.20;4.45;;;;;;;15.51;57.73;100414.63;10415498;28;20565;-79
2022/10/13 15:52:25;;;;;;;7.43;4.47;;;;;;;15.44;58.85;100408.97;10416319;28;20045;-80
2022/10/13 15:57:33;;;;;;;7.60;4.82;;;;;;;15.13;59.69;100417.44;10398179;28;20045;-80
2022/10/13 16:02:36;;;;;;;11.93;6.13;;;;;;;14.94;60.39;100417.56;10410794;28;20540;-81
2022/10/13 16:07:41;;;;;;;11.25;6.05;;;;;;;14.58;63.39;100423.72;10411631;28;20045;-80
2022/10/13 16:12:44;;;;;;;13.50;7.00;;;;;;;14.26;66.14;100436.78;10421341;28;20074;-79
2022/10/13 16:17:52;;;;;;;15.48;8.05;;;;;;;14.36;67.81;100433.03;10413918;28;20102;-81
2022/10/13 16:22:56;;;;;;;12.77;7.93;;;;;;;13.90;70.60;100434.75;10407020;28;20068;-80
2022/10/13 16:27:59;;;;;;;17.20;9.02;;;;;;;13.38;72.76;100441.44;10402978;28;20045;-81
2022/10/13 16:33:02;;;;;;;14.00;8.95;;;;;;;13.42;73.49;100445.56;10405423;28;20044;-81
2022/10/13 16:38:07;;;;;;;14.65;9.52;;;;;;;13.30;74.51;100452.91;10418667;28;20061;-81
2022/10/13 16:43:09;;;;;;;18.17;11.00;;;;;;;13.08;76.72;100453.16;10454231;28;20044;-79
2022/10/13 16:48:13;;;;;;;17.13;11.07;;;;;;;12.83;78.96;100456.22;10432386;28;20049;-78
2022/10/13 16:53:18;;;;;;;20.40;12.25;;;;;;;12.90;79.38;100456.53;10427503;28;20541;-78
2022/10/13 16:58:20;;;;;;;21.90;13.25;;;;;;;12.83;80.40;100441.88;10421947;28;20045;-80
2022/10/13 17:03:23;;;;;;;20.60;13.20;;;;;;;12.75;81.13;100442.59;10419138;28;20045;-81
2022/10/13 17:08:27;;;;;;;27.25;13.85;;;;;;;12.79;81.07;100444.00;10415439;28;20626;-81
2022/10/13 17:13:34;;;;;;;25.83;15.43;;;;;;;12.78;81.59;100436.03;10399019;28;20046;-81
2022/10/13 17:18:36;;;;;;;23.50;15.98;;;;;;;12.82;81.87;100443.72;10390946;28;20049;-78
2022/10/13 17:23:41;;;;;;;27.48;17.13;;;;;;;12.85;82.07;100444.44;10410307;28;20128;-78
2022/10/13 17:28:50;;;;;;;24.58;17.33;;;;;;;12.80;82.35;100439.47;10415993;28;20087;-78
2022/10/13 17:33:53;;;;;;;24.40;17.38;;;;;;;12.78;82.23;100439.63;10424094;28;20057;-81
2022/10/13 17:39:02;;;;;;;29.40;18.77;;;;;;;12.80;82.76;100453.78;10418788;28;20059;-80
2022/10/13 17:44:05;;;;;;;31.25;18.52;;;;;;;12.91;83.07;100441.19;10410610;28;20500;-81
2022/10/13 17:49:11;;;;;;;26.30;18.00;;;;;;;12.89;82.83;100448.56;10414952;28;20049;-81
2022/10/13 17:54:15;;;;;;;29.17;18.15;;;;;;;12.82;82.83;100450.97;10412291;28;20040;-80
2022/10/13 17:59:18;;;;;;;29.08;18.17;;;;;;;12.79;82.95;100452.09;10387674;28;20093;-81
2022/10/13 18:04:22;;;;;;;31.45;18.45;;;;;;;12.75;83.03;100434.50;10401661;28;20041;-80
2022/10/13 18:09:26;;;;;;;35.13;18.73;;;;;;;12.82;83.60;100437.50;10413775;28;20088;-81
2022/10/13 18:14:29;;;;;;;31.52;18.52;;;;;;;12.89;83.43;100427.88;10410971;28;20528;-81
2022/10/13 18:19:32;;;;;;;32.40;18.02;;;;;;;12.91;83.48;100425.88;10411117;28;20046;-82
2022/10/13 18:24:43;;;;;;;29.88;17.05;;;;;;;12.92;83.67;100429.44;10410483;28;20079;-81
2022/10/13 18:29:45;;;;;;;33.17;18.23;;;;;;;12.95;83.69;100445.34;10413838;28;20045;-79
2022/10/13 18:34:48;;;;;;;35.65;17.75;;;;;;;12.95;83.20;100434.56;10408205;28;20053;-78
2022/10/13 18:39:52;;;;;;;34.83;17.80;;;;;;;12.95;83.62;100439.94;10392091;28;20663;-78
2022/10/13 18:44:55;;;;;;;27.85;18.33;;;;;;;12.99;84.00;100431.41;10404626;28;20056;-79
2022/10/13 18:49:58;;;;;;;30.90;16.77;;;;;;;13.03;84.17;100429.31;10413950;28;20140;-78
2022/10/13 18:55:02;;;;;;;31.15;19.00;;;;;;;13.05;84.46;100425.50;10407420;28;20140;-78
2022/10/13 19:00:06;;;;;;;31.75;17.35;;;;;;;13.01;84.16;100437.53;10396311;28;20052;-78
2022/10/13 19:05:10;;;;;;;28.50;17.17;;;;;;;13.01;84.44;100420.50;10399189;28;20041;-78
2022/10/13 19:10:14;;;;;;;27.02;17.65;;;;;;;12.90;84.34;100410.69;10404428;28;22304;-78
2022/10/13 19:15:17;;;;;;;29.73;17.33;;;;;;;12.79;84.03;100421.59;10398454;28;20056;-78
2022/10/13 19:20:20;;;;;;;32.33;18.13;;;;;;;12.70;84.27;100415.19;10376490;28;20426;-78
2022/10/13 19:25:25;;;;;;;25.38;16.30;;;;;;;12.67;84.57;100414.59;10381706;28;20046;-78
2022/10/13 19:30:28;;;;;;;27.08;17.23;;;;;;;12.67;84.74;100415.47;10404630;28;20037;-79
2022/10/13 19:35:30;;;;;;;30.08;18.17;;;;;;;12.67;84.69;100419.97;10391226;28;21335;-78
2022/10/13 19:40:35;;;;;;;28.15;17.13;;;;;;;12.73;84.95;100431.09;10394170;28;20041;-78
2022/10/13 19:45:46;;;;;;;31.50;20.23;;;;;;;12.78;85.17;100433.34;10403574;28;20047;-78
2022/10/13 19:50:49;;;;;;;38.10;22.40;;;;;;;12.78;84.91;100431.53;10411855;28;20505;-78
2022/10/13 19:55:53;;;;;;;29.58;19.77;;;;;;;12.73;84.80;100432.94;10409052;28;20049;-78
2022/10/13 20:01:01;;;;;;;30.15;20.95;;;;;;;12.69;84.77;100429.63;10396900;28;20060;-78
2022/10/13 20:06:06;;;;;;;38.35;22.70;;;;;;;12.69;84.94;100434.19;10418531;28;20057;-79
2022/10/13 20:11:16;;;;;;;28.65;18.70;;;;;;;12.64;84.26;100431.88;10409731;28;20064;-79
2022/10/13 20:16:25;;;;;;;29.50;16.95;;;;;;;12.60;83.54;100441.25;10391920;28;20092;-79
2022/10/13 20:21:30;;;;;;;21.90;15.02;;;;;;;12.60;83.20;100443.94;10394189;28;20131;-79
2022/10/13 20:26:34;;;;;;;28.67;16.38;;;;;;;12.63;83.43;100437.44;10400252;28;20055;-79
2022/10/13 20:31:37;;;;;;;25.98;15.88;;;;;;;12.68;83.46;100429.78;10391937;28;20045;-78
2022/10/13 20:36:40;;;;;;;24.08;16.23;;;;;;;12.71;83.19;100430.38;10398174;28;20050;-78
2022/10/13 20:41:44;;;;;;;26.08;15.52;;;;;;;12.70;82.46;100438.56;10410038;28;20052;-78
2022/10/13 20:46:48;;;;;;;28.85;16.17;;;;;;;12.64;83.06;100434.59;10387433;28;20136;-78
2022/10/13 20:51:51;;;;;;;27.70;15.63;;;;;;;12.64;82.08;100436.44;10375954;28;20773;-78
2022/10/13 20:56:56;;;;;;;22.20;14.73;;;;;;;12.60;81.75;100439.41;10380477;28;20371;-78
2022/10/13 21:01:59;;;;;;;22.55;14.80;;;;;;;12.64;81.64;100441.81;10390902;28;20060;-78
2022/10/13 21:07:02;;;;;;;26.15;16.33;;;;;;;12.44;82.11;100451.66;10397580;28;20052;-77
2022/10/13 21:12:06;;;;;;;28.42;17.88;;;;;;;12.08;84.79;100449.31;10394605;28;20049;-78
2022/10/13 21:17:09;;;;;;;26.15;18.02;;;;;;;12.16;85.12;100446.81;10402325;28;20123;-78
2022/10/13 21:22:12;;;;;;;29.05;17.95;;;;;;;12.12;86.19;100434.63;10400406;28;20045;-77
2022/10/13 21:27:16;;;;;;;32.63;18.25;;;;;;;12.12;86.50;100431.94;10395311;28;20413;-77
2022/10/13 21:32:19;;;;;;;32.58;18.92;;;;;;;12.10;86.54;100433.91;10392637;28;20072;-77
2022/10/13 21:37:23;;;;;;;36.47;20.42;;;;;;;12.13;86.89;100428.25;10400932;28;20836;-76
2022/10/13 21:42:29;;;;;;;31.95;21.20;;;;;;;12.06;87.24;100418.13;10406785;28;20048;-77
2022/10/13 21:47:33;;;;;;;34.05;20.67;;;;;;;12.12;87.30;100428.38;10407336;28;20501;-76
2022/10/13 21:52:36;;;;;;;37.40;20.30;;;;;;;12.08;87.35;100432.31;10390647;28;20041;-80
2022/10/13 21:57:40;;;;;;;34.35;20.38;;;;;;;12.07;87.54;100427.94;10420460;28;20057;-78
2022/10/13 22:02:43;;;;;;;34.58;21.17;;;;;;;12.13;87.72;100425.56;10424638;28;20067;-78
2022/10/13 22:07:46;;;;;;;35.58;21.65;;;;;;;12.16;87.73;100424.44;10366902;28;20057;-77
2022/10/13 22:12:50;;;;;;;36.72;21.88;;;;;;;12.14;87.78;100416.47;10407400;28;20111;-79
2022/10/13 22:17:53;;;;;;;35.42;21.08;;;;;;;12.17;87.87;100416.19;10425938;28;20075;-78
2022/10/13 22:22:56;;;;;;;38.58;21.23;;;;;;;12.22;87.82;100421.19;10416694;28;20049;-79
2022/10/13 22:28:00;;;;;;;36.40;23.85;;;;;;;12.22;87.70;100410.41;10407378;28;20053;-79
2022/10/13 22:33:04;;;;;;;37.22;23.48;;;;;;;12.23;87.81;100414.84;10406542;28;20053;-78
2022/10/13 22:38:08;;;;;;;33.83;23.30;;;;;;;12.25;87.70;100409.31;10401897;28;20584;-79
2022/10/13 22:43:12;;;;;;;40.83;22.77;;;;;;;12.25;88.08;100410.16;10403286;28;20064;-79
2022/10/13 22:48:15;;;;;;;37.15;22.05;;;;;;;12.23;87.83;100408.56;10386126;28;21298;-79
2022/10/13 22:53:18;;;;;;;37.40;24.50;;;;;;;12.26;87.88;100402.91;10386081;28;20060;-78
2022/10/13 22:58:22;;;;;;;37.65;25.73;;;;;;;12.27;87.65;100410.03;10416291;28;20057;-79
2022/10/13 23:03:27;;;;;;;39.33;24.38;;;;;;;12.30;87.88;100407.09;10414157;28;20144;-79
2022/10/13 23:08:34;;;;;;;39.90;24.80;;;;;;;12.29;87.55;100403.56;10406245;28;20045;-78
2022/10/13 23:13:38;;;;;;;40.53;25.70;;;;;;;12.32;87.52;100415.91;10410241;28;20088;-79
2022/10/13 23:18:41;;;;;;;45.05;25.27;;;;;;;12.04;87.84;100414.72;10411070;28;20045;-79